Terminal Aerodrome Forecast
Issued by NWS

Home | Current Version | Previous Version | Graphics & Text | Print | Product List | Glossary On
Versions: 1 2 3 4 5 6 7 8 9 10 11 12 13 14 15 16 17 18 19 20
000
FTUS43 KGRB 251100
TAFCWA
TAF
KCWA 251133Z 2512/2612 30010KT P6SM BKN030
     FM251500 28007KT P6SM SCT030 BKN120
     FM251900 27007KT P6SM FEW035 SCT100
     FM252300 23003KT P6SM SKC=

USA.gov is the U.S. government's official web portal to all federal, state and local government web resources and services.